createdAt,value
2018-06-24T00:00:11.226Z,86.58
2018-06-24T00:01:11.225Z,86.58
2018-06-24T00:02:11.199Z,86.1
2018-06-24T00:03:11.185Z,86.2
2018-06-24T00:04:11.175Z,85.25
2018-06-24T00:05:11.154Z,85.25
2018-06-24T00:06:11.144Z,85.25
2018-06-24T00:07:10.860Z,84.67
2018-06-24T00:08:11.121Z,84.39
2018-06-24T00:09:10.830Z,84.29
2018-06-24T00:10:11.083Z,83.72
2018-06-24T00:11:11.069Z,83.57
2018-06-24T00:12:10.787Z,83.24
2018-06-24T00:13:10.770Z,83.62
2018-06-24T00:14:10.773Z,83.09
2018-06-24T00:15:11.013Z,83
2018-06-24T00:16:10.733Z,82.57
2018-06-24T00:17:10.978Z,82.38
2018-06-24T00:18:10.961Z,82.86
2018-06-24T00:19:10.682Z,83.24
2018-06-24T00:20:10.939Z,83.05
2018-06-24T00:21:10.660Z,83.14
2018-06-24T00:22:10.917Z,83.09
2018-06-24T00:23:10.623Z,82.86
2018-06-24T00:24:10.878Z,82.81
2018-06-24T00:25:10.858Z,82.9
2018-06-24T00:26:10.843Z,82.9
2018-06-24T00:27:10.894Z,83.09
2018-06-24T00:28:10.817Z,82.81
2018-06-24T00:29:10.806Z,83.18
2018-06-24T00:30:10.786Z,83
2018-06-24T00:31:10.772Z,83.09
2018-06-24T00:32:10.760Z,83.18
2018-06-24T00:33:10.479Z,83.18
2018-06-24T00:34:10.737Z,83.09
2018-06-24T00:35:10.715Z,82.81
2018-06-24T00:36:10.704Z,83.28
2018-06-24T00:37:10.720Z,83.09
2018-06-24T00:38:10.405Z,83.09
2018-06-24T00:39:10.657Z,83.28
2018-06-24T00:40:10.641Z,83.18
2018-06-24T00:41:10.625Z,83.09
2018-06-24T00:42:10.610Z,83.57
2018-06-24T00:43:10.600Z,83.57
2018-06-24T00:44:10.580Z,83.67
2018-06-24T00:45:10.571Z,83.47
2018-06-24T00:46:10.291Z,83.18
2018-06-24T00:47:10.277Z,83.57
2018-06-24T00:48:10.257Z,83.28
2018-06-24T00:49:10.248Z,83.38
2018-06-24T00:50:10.495Z,83.38
2018-06-24T00:51:10.480Z,83.57
2018-06-24T00:52:10.204Z,83.76
2018-06-24T00:53:10.186Z,83.47
2018-06-24T00:54:10.171Z,83.47
2018-06-24T00:55:10.427Z,83.67
2018-06-24T00:56:10.141Z,83.67
2018-06-24T00:57:10.130Z,84.52
2018-06-24T00:58:10.122Z,84.43
2018-06-24T00:59:10.369Z,83.67
2018-06-24T01:00:10.350Z,83.86
2018-06-24T01:01:10.070Z,83.67
2018-06-24T01:02:10.324Z,84.43
2018-06-24T01:03:10.309Z,84.43
2018-06-24T01:04:10.029Z,83.76
2018-06-24T01:05:10.275Z,83.86
2018-06-24T01:06:10.259Z,83.76
2018-06-24T01:07:10.249Z,83.57
2018-06-24T01:08:10.239Z,83.86
2018-06-24T01:09:10.215Z,83.47
2018-06-24T01:10:10.208Z,83.28
2018-06-24T01:11:10.190Z,83.47
2018-06-24T01:12:09.912Z,83.18
2018-06-24T01:13:09.896Z,83.43
2018-06-24T01:14:09.884Z,83.57
2018-06-24T01:15:09.870Z,83.57
2018-06-24T01:16:10.113Z,83.05
2018-06-24T01:17:10.103Z,83.47
2018-06-24T01:18:09.821Z,83.14
2018-06-24T01:19:09.805Z,82.9
2018-06-24T01:20:10.058Z,83.24
2018-06-24T01:21:10.045Z,83.05
2018-06-24T01:22:09.761Z,82.19
2018-06-24T01:23:10.026Z,82.38
2018-06-24T01:24:09.731Z,82.09
2018-06-24T01:25:09.977Z,81.9
2018-06-24T01:26:09.904Z,81.71
2018-06-24T01:27:09.950Z,80.95
2018-06-24T01:28:09.942Z,80.95
2018-06-24T01:29:09.656Z,80.85
2018-06-24T01:30:09.914Z,80.38
2018-06-24T01:31:09.895Z,80.38
2018-06-24T01:32:09.621Z,79.9
2018-06-24T01:33:09.862Z,79.52
2018-06-24T01:34:09.846Z,79.14
2018-06-24T01:35:09.592Z,79.04
2018-06-24T01:36:09.554Z,78.75
2018-06-24T01:37:09.814Z,78.28
2018-06-24T01:38:09.797Z,77.8
2018-06-24T01:39:09.772Z,77.8
2018-06-24T01:40:09.759Z,77.89
2018-06-24T01:41:09.749Z,78.09
2018-06-24T01:42:09.462Z,77.61
2018-06-24T01:43:09.716Z,77.13
2018-06-24T01:44:09.702Z,77.23
2018-06-24T01:45:09.685Z,76.75
2018-06-24T01:46:09.673Z,76.56
2018-06-24T01:47:09.667Z,76.46
2018-06-24T01:48:09.638Z,76.37
2018-06-24T01:49:09.634Z,76.56
2018-06-24T01:50:09.354Z,76.18
2018-06-24T01:51:09.594Z,76.46
2018-06-24T01:52:09.585Z,76.56
2018-06-24T01:53:09.567Z,76.18
2018-06-24T01:54:09.287Z,76.37
2018-06-24T01:55:09.283Z,76.27
2018-06-24T01:56:09.519Z,76.65
2018-06-24T01:57:09.512Z,76.65
2018-06-24T01:58:09.229Z,76.37
2018-06-24T01:59:09.210Z,76.65
2018-06-24T02:00:09.463Z,76.65
2018-06-24T02:01:09.458Z,76.56
2018-06-24T02:02:09.164Z,76.56
2018-06-24T02:03:09.159Z,76.27
2018-06-24T02:04:09.145Z,76.18
2018-06-24T02:05:09.390Z,76.37
2018-06-24T02:06:09.371Z,76.37
2018-06-24T02:07:09.362Z,75.79
2018-06-24T02:08:09.341Z,75.22
2018-06-24T02:09:09.060Z,74.93
2018-06-24T02:10:09.046Z,75.32
2018-06-24T02:11:09.295Z,75.03
2018-06-24T02:12:09.287Z,75.22
2018-06-24T02:13:09.009Z,74.65
2018-06-24T02:14:08.985Z,74.93
2018-06-24T02:15:09.246Z,74.27
2018-06-24T02:16:08.962Z,74.37
2018-06-24T02:17:09.204Z,73.79
2018-06-24T02:18:09.201Z,74.46
2018-06-24T02:19:08.908Z,74.37
2018-06-24T02:20:09.157Z,74.55
2018-06-24T02:21:09.146Z,75.32
2018-06-24T02:22:09.131Z,75.6
2018-06-24T02:23:09.121Z,76.08
2018-06-24T02:24:09.104Z,77.03
2018-06-24T02:25:09.090Z,77.26
2018-06-24T02:26:08.810Z,77.55
2018-06-24T02:27:08.793Z,78.31
2018-06-24T02:28:09.058Z,78.51
2018-06-24T02:29:08.770Z,78.6
2018-06-24T02:30:09.019Z,78.51
2018-06-24T02:31:09.000Z,79.65
2018-06-24T02:32:08.718Z,79.75
2018-06-24T02:33:08.979Z,80.13
2018-06-24T02:34:08.692Z,80.13
2018-06-24T02:35:08.937Z,80.99
2018-06-24T02:36:08.930Z,80.41
2018-06-24T02:37:08.654Z,81.27
2018-06-24T02:38:08.646Z,80.9
2018-06-24T02:39:08.929Z,81.66
2018-06-24T02:40:08.610Z,81.85
2018-06-24T02:41:08.847Z,81.37
2018-06-24T02:42:08.850Z,81.66
2018-06-24T02:43:08.824Z,81.76
2018-06-24T02:44:08.547Z,81.95
2018-06-24T02:45:08.543Z,81.27
2018-06-24T02:46:08.777Z,80.8
2018-06-24T02:47:08.503Z,81.18
2018-06-24T02:48:08.487Z,81.66
2018-06-24T02:49:08.470Z,81.09
2018-06-24T02:50:08.719Z,80.8
2018-06-24T02:51:08.441Z,80.32
2018-06-24T02:52:08.424Z,78.99
2018-06-24T02:53:08.676Z,78.7
2018-06-24T02:54:08.667Z,78.89
2018-06-24T02:55:08.645Z,78.7
2018-06-24T02:56:08.372Z,78.89
2018-06-24T02:57:08.357Z,78.13
2018-06-24T02:58:08.612Z,78.41
2018-06-24T02:59:08.594Z,78.7
2018-06-24T03:00:08.309Z,78.99
2018-06-24T03:01:08.298Z,78.7
2018-06-24T03:02:08.281Z,78.99
2018-06-24T03:03:08.262Z,78.99
2018-06-24T03:04:08.513Z,79.08
2018-06-24T03:05:08.237Z,78.7
2018-06-24T03:06:08.626Z,78.51
2018-06-24T03:07:08.470Z,77.74
2018-06-24T03:08:08.191Z,77.45
2018-06-24T03:09:08.179Z,76.6
2018-06-24T03:10:08.428Z,75.03
2018-06-24T03:11:08.414Z,75.16
2018-06-24T03:12:08.394Z,74.98
2018-06-24T03:13:08.391Z,74.17
2018-06-24T03:14:08.367Z,73.88
2018-06-24T03:15:08.359Z,74.08
2018-06-24T03:16:08.514Z,73.22
2018-06-24T03:17:08.060Z,73.6
2018-06-24T03:18:08.315Z,72.78
2018-06-24T03:19:08.034Z,73.12
2018-06-24T03:20:08.013Z,73.12
2018-06-24T03:21:08.003Z,72.93
2018-06-24T03:22:08.259Z,72.74
2018-06-24T03:23:07.967Z,73.03
2018-06-24T03:24:07.958Z,72.36
2018-06-24T03:25:07.941Z,72.55
2018-06-24T03:26:08.135Z,72.74
2018-06-24T03:27:08.179Z,72.74
2018-06-24T03:28:07.895Z,72.55
2018-06-24T03:29:07.881Z,71.15
2018-06-24T03:30:08.138Z,71.34
2018-06-24T03:31:07.860Z,71.44
2018-06-24T03:32:08.106Z,71.31
2018-06-24T03:33:08.090Z,71.53
2018-06-24T03:34:08.070Z,71.44
2018-06-24T03:35:07.799Z,71.53
2018-06-24T03:36:08.039Z,71.53
2018-06-24T03:37:08.027Z,71.92
2018-06-24T03:38:08.012Z,71.72
2018-06-24T03:39:07.738Z,71.72
2018-06-24T03:40:07.726Z,71.72
2018-06-24T03:41:07.969Z,71.34
2018-06-24T03:42:07.957Z,71.06
2018-06-24T03:43:07.940Z,71.15
2018-06-24T03:44:07.922Z,71.63
2018-06-24T03:45:07.911Z,71.72
2018-06-24T03:46:07.626Z,71.25
2018-06-24T03:47:07.882Z,71.25
2018-06-24T03:48:07.597Z,71.44
2018-06-24T03:49:07.855Z,70.96
2018-06-24T03:50:07.576Z,71.63
2018-06-24T03:51:07.552Z,71.25
2018-06-24T03:52:07.546Z,71.53
2018-06-24T03:53:07.791Z,71.44
2018-06-24T03:54:07.775Z,71.72
2018-06-24T03:55:07.758Z,71.92
2018-06-24T03:56:07.480Z,71.44
2018-06-24T03:57:07.734Z,71.34
2018-06-24T03:58:07.854Z,72.39
2018-06-24T03:59:07.702Z,72.2
2018-06-24T04:00:07.695Z,71.25
2018-06-24T04:01:07.417Z,71.15
2018-06-24T04:02:07.663Z,71.53
2018-06-24T04:03:07.642Z,72.39
2018-06-24T04:04:07.364Z,71.67
2018-06-24T04:05:07.612Z,71.19
2018-06-24T04:06:07.596Z,72.24
2018-06-24T04:07:07.322Z,72.62
2018-06-24T04:08:07.309Z,73
2018-06-24T04:09:07.298Z,73
2018-06-24T04:10:07.276Z,73
2018-06-24T04:11:07.269Z,73.86
2018-06-24T04:12:07.254Z,73.96
2018-06-24T04:13:07.499Z,75.01
2018-06-24T04:14:07.496Z,75.1
2018-06-24T04:15:07.476Z,76.45
2018-06-24T04:16:07.194Z,76.25
2018-06-24T04:17:07.178Z,75.59
2018-06-24T04:18:07.436Z,76.16
2018-06-24T04:19:07.412Z,76.45
2018-06-24T04:20:07.134Z,76.16
2018-06-24T04:21:07.382Z,76.25
2018-06-24T04:22:07.376Z,76.64
2018-06-24T04:23:07.097Z,75.87
2018-06-24T04:24:07.337Z,75.78
2018-06-24T04:25:07.330Z,75.68
2018-06-24T04:26:07.313Z,76.06
2018-06-24T04:27:07.038Z,76.06
2018-06-24T04:28:07.281Z,76.35
2018-06-24T04:29:07.266Z,76.64
2018-06-24T04:30:06.997Z,76.16
2018-06-24T04:31:07.243Z,75.59
2018-06-24T04:32:07.230Z,75.96
2018-06-24T04:33:07.214Z,76.06
2018-06-24T04:34:06.938Z,76.16
2018-06-24T04:35:06.924Z,77.21
2018-06-24T04:36:07.169Z,77.4
2018-06-24T04:37:07.168Z,77.87
2018-06-24T04:38:07.138Z,77.69
2018-06-24T04:39:07.138Z,77.01
2018-06-24T04:40:07.120Z,77.59
2018-06-24T04:41:07.104Z,76.82
2018-06-24T04:42:07.092Z,76.64
2018-06-24T04:43:06.806Z,76.92
2018-06-24T04:44:07.061Z,77.69
2018-06-24T04:45:06.777Z,77.59
2018-06-24T04:46:07.034Z,77.59
2018-06-24T04:47:06.753Z,77.87
2018-06-24T04:48:07.017Z,77.59
2018-06-24T04:49:06.989Z,77.11
2018-06-24T04:50:06.975Z,76.45
2018-06-24T04:51:06.704Z,76.25
2018-06-24T04:52:06.956Z,76.06
2018-06-24T04:53:06.671Z,75.49
2018-06-24T04:54:06.915Z,75.71
2018-06-24T04:55:06.914Z,75.49
2018-06-24T04:56:06.891Z,75.81
2018-06-24T04:57:06.887Z,75.91
2018-06-24T04:58:06.603Z,76.39
2018-06-24T04:59:06.581Z,76.67
2018-06-24T05:00:06.891Z,76.96
2018-06-24T05:01:06.760Z,77.92
2018-06-24T05:02:06.808Z,78.39
2018-06-24T05:03:06.997Z,78.2
2018-06-24T05:04:06.777Z,78.87
2018-06-24T05:05:06.782Z,79.06
2018-06-24T05:06:06.755Z,79.44
2018-06-24T05:07:06.746Z,79.44
2018-06-24T05:08:06.464Z,80.88
2018-06-24T05:09:06.722Z,81.16
2018-06-24T05:10:06.434Z,81.55
2018-06-24T05:11:06.685Z,81.36
2018-06-24T05:12:06.672Z,80.98
2018-06-24T05:13:06.658Z,81.45
2018-06-24T05:14:06.378Z,81.26
2018-06-24T05:15:06.366Z,80.88
2018-06-24T05:16:06.614Z,81.93
2018-06-24T05:17:06.601Z,81.65
2018-06-24T05:18:06.585Z,82.31
2018-06-24T05:19:06.305Z,82.6
2018-06-24T05:20:06.562Z,82.6
2018-06-24T05:21:06.280Z,82.31
2018-06-24T05:22:06.542Z,81.93
2018-06-24T05:23:06.582Z,82.98
2018-06-24T05:24:06.514Z,82.41
2018-06-24T05:25:06.229Z,82.35
2018-06-24T05:26:06.218Z,81.68
2018-06-24T05:27:06.471Z,82.35
2018-06-24T05:28:06.189Z,82.35
2018-06-24T05:29:06.174Z,81.49
2018-06-24T05:30:06.167Z,82.74
2018-06-24T05:31:06.414Z,82.54
2018-06-24T05:32:06.403Z,82.45
2018-06-24T05:33:06.125Z,82.45
2018-06-24T05:34:06.103Z,82.45
2018-06-24T05:35:06.093Z,83.6
2018-06-24T05:36:06.346Z,83.69
2018-06-24T05:37:06.335Z,83.69
2018-06-24T05:38:06.319Z,84.46
2018-06-24T05:39:06.301Z,84.36
2018-06-24T05:40:06.292Z,83.6
2018-06-24T05:41:06.280Z,83.22
2018-06-24T05:42:06.002Z,83.4
2018-06-24T05:43:06.338Z,85.22
2018-06-24T05:44:05.974Z,85.51
2018-06-24T05:45:05.961Z,85.46
2018-06-24T05:46:05.946Z,85.22
2018-06-24T05:47:06.202Z,86.61
2018-06-24T05:48:05.925Z,87.66
2018-06-24T05:49:06.178Z,84.79
2018-06-24T05:50:06.162Z,84.98
2018-06-24T05:51:06.147Z,86.8
2018-06-24T05:52:06.134Z,88.62
2018-06-24T05:53:05.853Z,90.05
2018-06-24T05:54:05.848Z,90.05
2018-06-24T05:55:06.099Z,89.29
2018-06-24T05:56:06.081Z,88.13
2018-06-24T05:57:06.069Z,92.16
2018-06-24T05:58:06.053Z,92.63
2018-06-24T05:59:06.045Z,91.87
2018-06-24T06:00:06.037Z,92.54
2018-06-24T06:01:06.018Z,92.63
2018-06-24T06:02:05.739Z,93.21
2018-06-24T06:03:06.000Z,92.25
2018-06-24T06:04:05.998Z,93.98
2018-06-24T06:05:05.971Z,93.93
2018-06-24T06:06:05.957Z,93.74
2018-06-24T06:07:05.951Z,93.45
2018-06-24T06:08:05.931Z,92.87
2018-06-24T06:09:05.922Z,93.26
2018-06-24T06:10:05.708Z,94.89
2018-06-24T06:11:05.897Z,94.31
2018-06-24T06:12:05.912Z,94.12
2018-06-24T06:13:05.605Z,94.21
2018-06-24T06:14:05.855Z,94.4
2018-06-24T06:15:05.579Z,96.7
2018-06-24T06:16:05.897Z,96.32
2018-06-24T06:17:05.819Z,97.18
2018-06-24T06:18:05.815Z,96.99
2018-06-24T06:19:05.795Z,97.18
2018-06-24T06:20:05.789Z,96.22
2018-06-24T06:21:05.770Z,95.94
2018-06-24T06:22:05.764Z,97.47
2018-06-24T06:23:05.749Z,98.38
2018-06-24T06:24:05.468Z,97.75
2018-06-24T06:25:05.725Z,98.52
2018-06-24T06:26:05.708Z,99.58
2018-06-24T06:27:05.710Z,99.19
2018-06-24T06:28:05.691Z,98.62
2018-06-24T06:29:05.417Z,98.05
2018-06-24T06:30:05.396Z,99.1
2018-06-24T06:31:05.391Z,99.87
2018-06-24T06:32:05.641Z,99.99
2018-06-24T06:33:05.424Z,99.77
2018-06-24T06:34:05.617Z,98.57
2018-06-24T06:35:05.343Z,99.53
2018-06-24T06:36:05.324Z,99.82
2018-06-24T06:37:05.576Z,99.99
2018-06-24T06:38:05.568Z,99.99
2018-06-24T06:39:05.558Z,99.99
2018-06-24T06:40:05.563Z,99.99
2018-06-24T06:41:05.275Z,99.72
2018-06-24T06:42:05.529Z,99.99
2018-06-24T06:43:05.511Z,99.99
2018-06-24T06:44:05.232Z,99.99
2018-06-24T06:45:05.706Z,99.99
2018-06-24T06:46:05.474Z,99.99
2018-06-24T06:47:05.199Z,99.99
2018-06-24T06:48:05.452Z,99.99
2018-06-24T06:49:05.177Z,99.99
2018-06-24T06:50:05.434Z,99.99
2018-06-24T06:51:05.553Z,99.99
2018-06-24T06:52:05.399Z,99.99
2018-06-24T06:53:05.130Z,99.99
2018-06-24T06:54:05.382Z,99.99
2018-06-24T06:55:05.112Z,99.99
2018-06-24T06:56:05.357Z,99.99
2018-06-24T06:57:05.344Z,99.99
2018-06-24T06:58:05.338Z,99.99
2018-06-24T06:59:05.057Z,99.99
2018-06-24T07:00:05.438Z,99.99
2018-06-24T07:01:05.310Z,99.99
2018-06-24T07:02:05.297Z,99.99
2018-06-24T07:03:05.021Z,99.99
2018-06-24T07:04:05.276Z,99.99
2018-06-24T07:05:04.993Z,99.99
2018-06-24T07:06:04.982Z,99.99
2018-06-24T07:07:04.969Z,99.99
2018-06-24T07:08:05.221Z,99.99
2018-06-24T07:09:05.208Z,99.99
2018-06-24T07:10:04.940Z,99.99
2018-06-24T07:11:04.922Z,99.99
2018-06-24T07:12:05.182Z,99.99
2018-06-24T07:13:04.942Z,99.99
2018-06-24T07:14:05.166Z,99.99
2018-06-24T07:15:05.142Z,99.99
2018-06-24T07:16:05.182Z,99.99
2018-06-24T07:17:04.854Z,99.99
2018-06-24T07:18:05.116Z,99.99
2018-06-24T07:19:04.839Z,99.99
2018-06-24T07:20:04.826Z,99.99
2018-06-24T07:21:05.076Z,99.99
2018-06-24T07:22:04.858Z,99.99
2018-06-24T07:23:05.058Z,99.99
2018-06-24T07:24:05.044Z,99.99
2018-06-24T07:25:05.032Z,99.99
2018-06-24T07:26:05.035Z,99.99
2018-06-24T07:27:05.209Z,99.99
2018-06-24T07:28:04.734Z,99.99
2018-06-24T07:29:04.726Z,99.99
2018-06-24T07:30:04.713Z,99.99
2018-06-24T07:31:04.700Z,99.99
2018-06-24T07:32:04.691Z,99.99
2018-06-24T07:33:04.998Z,99.99
2018-06-24T07:34:04.933Z,99.99
2018-06-24T07:35:04.921Z,99.99
2018-06-24T07:36:04.641Z,99.99
2018-06-24T07:37:04.894Z,99.99
2018-06-24T07:38:04.621Z,99.99
2018-06-24T07:39:04.944Z,99.99
2018-06-24T07:40:04.863Z,99.99
2018-06-24T07:41:04.861Z,99.99
2018-06-24T07:42:04.844Z,99.99
2018-06-24T07:43:04.838Z,99.99
2018-06-24T07:44:04.826Z,99.99
2018-06-24T07:45:04.811Z,99.99
2018-06-24T07:46:04.534Z,99.99
2018-06-24T07:47:04.532Z,99.99
2018-06-24T07:48:04.774Z,99.99
2018-06-24T07:49:04.765Z,99.99
2018-06-24T07:50:04.493Z,99.99
2018-06-24T07:51:04.747Z,99.99
2018-06-24T07:52:04.744Z,99.99
2018-06-24T07:53:04.729Z,99.99
2018-06-24T07:54:04.459Z,99.99
2018-06-24T07:55:04.440Z,99.99
2018-06-24T07:56:04.427Z,99.99
2018-06-24T07:57:04.683Z,99.99
2018-06-24T07:58:04.671Z,99.99
2018-06-24T07:59:04.396Z,99.99
2018-06-24T08:00:04.403Z,99.99
2018-06-24T08:01:04.377Z,99.99
2018-06-24T08:02:04.633Z,99.99
2018-06-24T08:03:04.350Z,99.99
2018-06-24T08:04:04.606Z,99.99
2018-06-24T08:05:04.336Z,99.99
2018-06-24T08:06:04.588Z,99.99
2018-06-24T08:07:04.580Z,99.99
2018-06-24T08:08:04.561Z,99.99
2018-06-24T08:09:04.552Z,99.99
2018-06-24T08:10:04.276Z,99.99
2018-06-24T08:11:04.533Z,99.99
2018-06-24T08:12:04.520Z,99.99
2018-06-24T08:13:04.248Z,99.99
2018-06-24T08:14:04.504Z,99.99
2018-06-24T08:15:04.497Z,99.99
2018-06-24T08:16:04.486Z,99.99
2018-06-24T08:17:04.212Z,99.99
2018-06-24T08:18:04.468Z,99.99
2018-06-24T08:19:04.453Z,99.99
2018-06-24T08:20:04.443Z,99.99
2018-06-24T08:21:04.433Z,99.99
2018-06-24T08:22:04.160Z,99.99
2018-06-24T08:23:04.145Z,99.99
2018-06-24T08:24:04.404Z,99.99
2018-06-24T08:25:04.125Z,99.99
2018-06-24T08:26:04.385Z,99.99
2018-06-24T08:27:04.106Z,99.99
2018-06-24T08:28:04.374Z,99.99
2018-06-24T08:29:04.085Z,99.99
2018-06-24T08:30:04.080Z,99.99
2018-06-24T08:31:04.344Z,99.99
2018-06-24T08:32:04.325Z,99.99
2018-06-24T08:33:04.308Z,99.99
2018-06-24T08:34:04.035Z,99.99
2018-06-24T08:35:04.298Z,99.99
2018-06-24T08:36:04.019Z,99.99
2018-06-24T08:37:04.010Z,99.99
2018-06-24T08:38:03.991Z,99.99
2018-06-24T08:39:03.991Z,99.99
2018-06-24T08:40:03.979Z,99.99
2018-06-24T08:41:03.966Z,99.99
2018-06-24T08:42:04.220Z,99.99
2018-06-24T08:43:03.946Z,99.99
2018-06-24T08:44:03.930Z,99.99
2018-06-24T08:45:03.921Z,99.99
2018-06-24T08:46:03.912Z,99.99
2018-06-24T08:47:04.171Z,99.99
2018-06-24T08:48:03.888Z,99.99
2018-06-24T08:49:04.142Z,99.99
2018-06-24T08:50:04.144Z,99.99
2018-06-24T08:51:03.859Z,99.99
2018-06-24T08:52:04.139Z,99.99
2018-06-24T08:53:04.107Z,99.99
2018-06-24T08:54:04.094Z,99.99
2018-06-24T08:55:04.088Z,99.99
2018-06-24T08:56:04.068Z,99.99
2018-06-24T08:57:03.791Z,99.99
2018-06-24T08:58:03.792Z,99.99
2018-06-24T08:59:03.783Z,99.99
2018-06-24T09:00:03.770Z,99.99
2018-06-24T09:01:04.026Z,99.99
2018-06-24T09:02:03.740Z,99.99
2018-06-24T09:03:03.996Z,99.99
2018-06-24T09:04:03.724Z,99.99
2018-06-24T09:05:03.986Z,99.99
2018-06-24T09:06:03.967Z,99.99
2018-06-24T09:07:03.956Z,99.99
2018-06-24T09:08:04.046Z,99.99
2018-06-24T09:09:03.939Z,99.99
2018-06-24T09:10:03.666Z,99.99
2018-06-24T09:11:03.652Z,99.99
2018-06-24T09:12:03.907Z,99.99
2018-06-24T09:13:03.631Z,99.99
2018-06-24T09:14:03.640Z,99.99
2018-06-24T09:15:03.878Z,99.99
2018-06-24T09:16:03.604Z,99.99
2018-06-24T09:17:03.856Z,99.99
2018-06-24T09:18:03.583Z,99.99
2018-06-24T09:19:03.837Z,99.99
2018-06-24T09:20:03.833Z,99.99
2018-06-24T09:21:03.572Z,99.99
2018-06-24T09:22:03.956Z,99.99
2018-06-24T09:23:03.811Z,99.99
2018-06-24T09:24:03.800Z,99.99
2018-06-24T09:25:03.514Z,99.99
2018-06-24T09:26:03.772Z,99.99
2018-06-24T09:27:03.967Z,99.99
2018-06-24T09:28:03.485Z,99.99
2018-06-24T09:29:03.742Z,99.99
2018-06-24T09:30:03.732Z,99.99
2018-06-24T09:31:03.733Z,99.99
2018-06-24T09:32:03.722Z,99.99
2018-06-24T09:33:03.703Z,99.99
2018-06-24T09:34:03.696Z,99.99
2018-06-24T09:35:03.687Z,99.99
2018-06-24T09:36:03.687Z,99.99
2018-06-24T09:37:03.405Z,99.99
2018-06-24T09:38:03.395Z,99.99
2018-06-24T09:39:03.393Z,99.99
2018-06-24T09:40:03.374Z,99.99
2018-06-24T09:41:03.780Z,99.99
2018-06-24T09:42:03.635Z,99.99
2018-06-24T09:43:03.616Z,99.99
2018-06-24T09:44:03.618Z,99.99
2018-06-24T09:45:03.333Z,99.99
2018-06-24T09:46:03.581Z,99.99
2018-06-24T09:47:03.577Z,99.99
2018-06-24T09:48:03.574Z,99.99
2018-06-24T09:49:03.299Z,99.99
2018-06-24T09:50:03.551Z,99.99
2018-06-24T09:51:03.699Z,99.99
2018-06-24T09:52:03.336Z,99.99
2018-06-24T09:53:03.266Z,99.99
2018-06-24T09:54:03.516Z,99.99
2018-06-24T09:55:03.249Z,99.99
2018-06-24T09:56:03.499Z,99.99
2018-06-24T09:57:03.228Z,99.99
2018-06-24T09:58:03.483Z,99.99
2018-06-24T09:59:03.484Z,99.99
2018-06-24T10:00:03.471Z,99.99
2018-06-24T10:01:03.456Z,99.99
2018-06-24T10:02:03.447Z,99.99
2018-06-24T10:03:03.185Z,99.99
2018-06-24T10:04:03.436Z,99.99
2018-06-24T10:05:03.167Z,99.99
2018-06-24T10:06:03.420Z,99.99
2018-06-24T10:07:03.412Z,99.99
2018-06-24T10:08:03.130Z,99.99
2018-06-24T10:09:03.124Z,99.99
2018-06-24T10:10:03.380Z,99.99
2018-06-24T10:11:03.414Z,99.99
2018-06-24T10:12:03.368Z,99.99
2018-06-24T10:13:03.090Z,99.99
2018-06-24T10:14:03.083Z,99.99
2018-06-24T10:15:03.076Z,99.99
2018-06-24T10:16:03.067Z,99.99
2018-06-24T10:17:03.320Z,99.99
2018-06-24T10:18:03.350Z,99.99
2018-06-24T10:19:03.313Z,99.99
2018-06-24T10:20:03.032Z,99.99
2018-06-24T10:21:03.023Z,99.99
2018-06-24T10:22:03.278Z,99.78
2018-06-24T10:23:03.014Z,99.99
2018-06-24T10:24:03.265Z,99.99
2018-06-24T10:25:02.988Z,99.99
2018-06-24T10:26:03.278Z,99.99
2018-06-24T10:27:03.242Z,99.99
2018-06-24T10:28:02.967Z,99.99
2018-06-24T10:29:02.957Z,99.99
2018-06-24T10:30:03.214Z,99.99
2018-06-24T10:31:03.205Z,99.99
2018-06-24T10:32:03.206Z,99.99
2018-06-24T10:33:03.187Z,99.99
2018-06-24T10:34:02.914Z,99.99
2018-06-24T10:35:03.168Z,99.99
2018-06-24T10:36:02.893Z,99.99
2018-06-24T10:37:02.889Z,99.99
2018-06-24T10:38:03.462Z,99.99
2018-06-24T10:39:02.876Z,99.99
2018-06-24T10:40:02.870Z,99.99
2018-06-24T10:41:03.140Z,99.99
2018-06-24T10:42:02.849Z,99.99
2018-06-24T10:43:03.113Z,99.99
2018-06-24T10:44:03.085Z,99.99
2018-06-24T10:45:02.810Z,99.99
2018-06-24T10:46:03.075Z,99.99
2018-06-24T10:47:03.102Z,99.99
2018-06-24T10:48:03.421Z,99.99
2018-06-24T10:49:03.041Z,99.99
2018-06-24T10:50:02.769Z,99.99
2018-06-24T10:51:02.773Z,99.99
2018-06-24T10:52:02.760Z,99.99
2018-06-24T10:53:03.138Z,99.99
2018-06-24T10:54:02.754Z,99.99
2018-06-24T10:55:03.006Z,99.99
2018-06-24T10:56:02.880Z,99.99
2018-06-24T10:57:03.072Z,99.99
2018-06-24T10:58:02.729Z,99.99
2018-06-24T10:59:02.688Z,99.99
2018-06-24T11:00:02.954Z,99.99
2018-06-24T11:01:02.940Z,99.99
2018-06-24T11:02:03.039Z,99.99
2018-06-24T11:03:02.665Z,99.99
2018-06-24T11:04:02.918Z,99.99
2018-06-24T11:05:02.856Z,99.99
2018-06-24T11:06:02.897Z,99.99
2018-06-24T11:07:02.891Z,99.99
2018-06-24T11:08:02.877Z,99.99
2018-06-24T11:09:02.611Z,99.99
2018-06-24T11:10:02.608Z,99.99
2018-06-24T11:11:02.600Z,99.99
2018-06-24T11:12:02.592Z,99.99
2018-06-24T11:13:02.840Z,99.99
2018-06-24T11:14:02.561Z,99.99
2018-06-24T11:15:02.562Z,99.99
2018-06-24T11:16:02.811Z,99.99
2018-06-24T11:17:02.538Z,99.99
2018-06-24T11:18:02.798Z,99.99
2018-06-24T11:19:02.788Z,99.99
2018-06-24T11:20:02.514Z,99.99
2018-06-24T11:21:02.507Z,99.99
2018-06-24T11:22:02.765Z,99.99
2018-06-24T11:23:02.747Z,99.99
2018-06-24T11:24:02.738Z,99.99
2018-06-24T11:25:02.736Z,99.99
2018-06-24T11:26:02.460Z,99.99
2018-06-24T11:27:02.918Z,99.99
2018-06-24T11:28:02.715Z,99.99
2018-06-24T11:29:02.693Z,99.99
2018-06-24T11:30:02.691Z,99.99
2018-06-24T11:31:02.842Z,99.99
2018-06-24T11:32:02.665Z,99.99
2018-06-24T11:33:02.661Z,99.99
2018-06-24T11:34:02.651Z,99.99
2018-06-24T11:35:02.643Z,99.99
2018-06-24T11:36:02.624Z,99.99
2018-06-24T11:37:02.777Z,99.99
2018-06-24T11:38:02.349Z,99.99
2018-06-24T11:39:02.600Z,99.99
2018-06-24T11:40:02.594Z,99.99
2018-06-24T11:41:02.584Z,99.99
2018-06-24T11:42:02.572Z,99.99
2018-06-24T11:43:02.313Z,99.99
2018-06-24T11:44:02.570Z,99.99
2018-06-24T11:45:02.542Z,99.99
2018-06-24T11:46:02.272Z,99.99
2018-06-24T11:47:02.540Z,99.99
2018-06-24T11:48:02.259Z,99.99
2018-06-24T11:49:02.244Z,99.99
2018-06-24T11:50:02.227Z,99.99
2018-06-24T11:51:02.217Z,99.99
2018-06-24T11:52:02.213Z,99.99
2018-06-24T11:53:02.206Z,99.99
2018-06-24T11:54:02.463Z,99.99
2018-06-24T11:55:02.456Z,99.99
2018-06-24T11:56:02.453Z,99.99
2018-06-24T11:57:02.535Z,99.99
2018-06-24T11:58:02.423Z,99.99
2018-06-24T11:59:02.425Z,99.99
2018-06-24T12:00:02.140Z,99.99
2018-06-24T12:01:02.390Z,99.99
2018-06-24T12:02:02.530Z,99.99
2018-06-24T12:03:02.109Z,99.99
2018-06-24T12:04:02.124Z,99.99
2018-06-24T12:05:02.096Z,99.99
2018-06-24T12:06:02.348Z,99.99
2018-06-24T12:07:02.522Z,99.99
2018-06-24T12:08:02.329Z,99.99
2018-06-24T12:09:02.325Z,99.99
2018-06-24T12:10:02.057Z,99.99
2018-06-24T12:11:02.037Z,99.99
2018-06-24T12:12:02.295Z,99.99
2018-06-24T12:13:02.015Z,99.99
2018-06-24T12:14:02.269Z,99.99
2018-06-24T12:15:02.267Z,99.99
2018-06-24T12:16:02.013Z,99.99
2018-06-24T12:17:01.987Z,99.99
2018-06-24T12:18:01.980Z,99.99
2018-06-24T12:19:01.978Z,99.99
2018-06-24T12:20:02.224Z,99.99
2018-06-24T12:21:01.948Z,99.99
2018-06-24T12:22:01.939Z,99.99
2018-06-24T12:23:02.191Z,99.99
2018-06-24T12:24:02.176Z,99.99
2018-06-24T12:25:02.168Z,99.99
2018-06-24T12:26:01.907Z,99.99
2018-06-24T12:27:01.892Z,99.99
2018-06-24T12:28:02.141Z,99.99
2018-06-24T12:29:01.865Z,99.99
2018-06-24T12:30:01.860Z,99.99
2018-06-24T12:31:02.107Z,99.99
2018-06-24T12:32:01.840Z,99.99
2018-06-24T12:33:02.101Z,99.99
2018-06-24T12:34:02.084Z,99.99
2018-06-24T12:35:02.073Z,99.99
2018-06-24T12:36:01.800Z,99.99
2018-06-24T12:37:02.047Z,99.99
2018-06-24T12:38:02.039Z,99.99
2018-06-24T12:39:02.035Z,99.99
2018-06-24T12:40:01.762Z,99.99
2018-06-24T12:41:02.018Z,99.99
2018-06-24T12:42:02.003Z,99.99
2018-06-24T12:43:02.096Z,99.99
2018-06-24T12:44:02.017Z,99.99
2018-06-24T12:45:01.976Z,99.99
2018-06-24T12:46:01.963Z,99.99
2018-06-24T12:47:01.694Z,99.99
2018-06-24T12:48:01.676Z,99.99
2018-06-24T12:49:01.675Z,99.99
2018-06-24T12:50:01.661Z,99.99
2018-06-24T12:51:01.917Z,99.99
2018-06-24T12:52:01.906Z,99.99
2018-06-24T12:53:01.638Z,99.99
2018-06-24T12:54:01.618Z,99.99